Terminal Aerodrome Forecast
Issued by NWS Raleigh/Durham, NC

Home | Current Version | Previous Version | Text Only | Print | Product List | Glossary On
Versions: 1 2 3 4 5 6 7 8 9 10 11 12 13 14 15 16 17 18 19 20 21 22 23 24 25 26
000
FTUS42 KRAH 261022 AAA
TAFRDU
TAF AMD
KRDU 261022Z 2610/2706 14004KT P6SM OVC025
      TEMPO 2610/2613 5SM -SHRA BR
     FM261800 16004KT P6SM BKN035
     FM270300 19004KT P6SM OVC100=

USA.gov is the U.S. government's official web portal to all federal, state and local government web resources and services.